sensor_id;sensor_type;location;lat;lon;timestamp;P1;durP1;ratioP1;P2;durP2;ratioP2
6860;SDS011;3469;47.060;15.460;2023-02-12T00:02:12;21.93;;;13.30;;
6860;SDS011;3469;47.060;15.460;2023-02-12T00:04:41;25.03;;;13.77;;
6860;SDS011;3469;47.060;15.460;2023-02-12T00:07:09;21.10;;;13.00;;
6860;SDS011;3469;47.060;15.460;2023-02-12T00:09:38;22.73;;;13.27;;
6860;SDS011;3469;47.060;15.460;2023-02-12T00:12:06;20.90;;;11.27;;
6860;SDS011;3469;47.060;15.460;2023-02-12T00:14:35;18.27;;;11.50;;
6860;SDS011;3469;47.060;15.460;2023-02-12T00:17:04;18.53;;;12.13;;
6860;SDS011;3469;47.060;15.460;2023-02-12T00:19:34;21.30;;;12.40;;
6860;SDS011;3469;47.060;15.460;2023-02-12T00:22:02;18.07;;;10.93;;
6860;SDS011;3469;47.060;15.460;2023-02-12T00:24:31;21.37;;;9.57;;
6860;SDS011;3469;47.060;15.460;2023-02-12T00:26:59;17.70;;;11.63;;
6860;SDS011;3469;47.060;15.460;2023-02-12T00:29:28;19.50;;;12.47;;
6860;SDS011;3469;47.060;15.460;2023-02-12T00:31:56;16.92;;;10.93;;
6860;SDS011;3469;47.060;15.460;2023-02-12T00:34:25;18.73;;;10.87;;
6860;SDS011;3469;47.060;15.460;2023-02-12T00:36:55;19.07;;;10.50;;
6860;SDS011;3469;47.060;15.460;2023-02-12T00:39:25;13.63;;;9.10;;
6860;SDS011;3469;47.060;15.460;2023-02-12T00:41:53;19.90;;;10.90;;
6860;SDS011;3469;47.060;15.460;2023-02-12T00:44:22;16.80;;;11.03;;
6860;SDS011;3469;47.060;15.460;2023-02-12T00:46:50;14.93;;;10.20;;
6860;SDS011;3469;47.060;15.460;2023-02-12T00:49:19;20.10;;;11.97;;
6860;SDS011;3469;47.060;15.460;2023-02-12T00:51:47;16.27;;;10.50;;
6860;SDS011;3469;47.060;15.460;2023-02-12T00:54:17;17.67;;;10.07;;
6860;SDS011;3469;47.060;15.460;2023-02-12T00:56:46;16.33;;;10.20;;
6860;SDS011;3469;47.060;15.460;2023-02-12T00:59:15;16.17;;;10.87;;
6860;SDS011;3469;47.060;15.460;2023-02-12T01:01:43;22.67;;;10.60;;
6860;SDS011;3469;47.060;15.460;2023-02-12T01:04:14;18.90;;;11.77;;
6860;SDS011;3469;47.060;15.460;2023-02-12T01:06:42;15.73;;;10.47;;
6860;SDS011;3469;47.060;15.460;2023-02-12T01:09:12;17.07;;;11.70;;
6860;SDS011;3469;47.060;15.460;2023-02-12T01:11:42;13.90;;;9.90;;
6860;SDS011;3469;47.060;15.460;2023-02-12T01:14:11;16.27;;;10.80;;
6860;SDS011;3469;47.060;15.460;2023-02-12T01:16:39;18.93;;;9.67;;
6860;SDS011;3469;47.060;15.460;2023-02-12T01:19:09;15.20;;;10.70;;
6860;SDS011;3469;47.060;15.460;2023-02-12T01:21:39;16.90;;;10.90;;
6860;SDS011;3469;47.060;15.460;2023-02-12T01:24:08;22.10;;;11.20;;
6860;SDS011;3469;47.060;15.460;2023-02-12T01:26:37;15.50;;;10.40;;
6860;SDS011;3469;47.060;15.460;2023-02-12T01:29:06;13.33;;;9.77;;
6860;SDS011;3469;47.060;15.460;2023-02-12T01:31:37;16.50;;;10.30;;
6860;SDS011;3469;47.060;15.460;2023-02-12T01:34:06;14.83;;;9.60;;
6860;SDS011;3469;47.060;15.460;2023-02-12T01:36:36;19.43;;;9.60;;
6860;SDS011;3469;47.060;15.460;2023-02-12T01:39:05;20.53;;;9.93;;
6860;SDS011;3469;47.060;15.460;2023-02-12T01:41:34;16.83;;;10.37;;
6860;SDS011;3469;47.060;15.460;2023-02-12T01:44:16;15.97;;;9.17;;
6860;SDS011;3469;47.060;15.460;2023-02-12T01:46:47;21.57;;;11.37;;
6860;SDS011;3469;47.060;15.460;2023-02-12T01:49:17;17.20;;;11.17;;
6860;SDS011;3469;47.060;15.460;2023-02-12T01:51:49;20.60;;;10.10;;
6860;SDS011;3469;47.060;15.460;2023-02-12T01:54:19;15.33;;;9.50;;
6860;SDS011;3469;47.060;15.460;2023-02-12T01:56:51;15.43;;;9.40;;
6860;SDS011;3469;47.060;15.460;2023-02-12T01:59:21;14.43;;;9.23;;
6860;SDS011;3469;47.060;15.460;2023-02-12T02:01:51;13.83;;;8.20;;
6860;SDS011;3469;47.060;15.460;2023-02-12T02:04:23;19.90;;;9.93;;
6860;SDS011;3469;47.060;15.460;2023-02-12T02:06:55;13.43;;;8.95;;
6860;SDS011;3469;47.060;15.460;2023-02-12T02:09:24;17.20;;;9.90;;
6860;SDS011;3469;47.060;15.460;2023-02-12T02:11:54;12.30;;;8.33;;
6860;SDS011;3469;47.060;15.460;2023-02-12T02:14:42;18.83;;;9.10;;
6860;SDS011;3469;47.060;15.460;2023-02-12T02:17:29;14.87;;;9.60;;
6860;SDS011;3469;47.060;15.460;2023-02-12T02:20:15;17.03;;;10.60;;
6860;SDS011;3469;47.060;15.460;2023-02-12T02:23:01;17.20;;;9.37;;
6860;SDS011;3469;47.060;15.460;2023-02-12T02:25:43;12.57;;;8.83;;
6860;SDS011;3469;47.060;15.460;2023-02-12T02:28:31;15.20;;;9.38;;
6860;SDS011;3469;47.060;15.460;2023-02-12T02:31:08;15.75;;;9.20;;
6860;SDS011;3469;47.060;15.460;2023-02-12T02:33:41;14.03;;;8.93;;
6860;SDS011;3469;47.060;15.460;2023-02-12T02:36:14;30.13;;;10.10;;
6860;SDS011;3469;47.060;15.460;2023-02-12T02:38:52;15.30;;;9.80;;
6860;SDS011;3469;47.060;15.460;2023-02-12T02:41:24;15.40;;;8.90;;
6860;SDS011;3469;47.060;15.460;2023-02-12T02:43:55;14.87;;;9.43;;
6860;SDS011;3469;47.060;15.460;2023-02-12T02:46:26;12.60;;;8.52;;
6860;SDS011;3469;47.060;15.460;2023-02-12T02:48:58;13.90;;;7.43;;
6860;SDS011;3469;47.060;15.460;2023-02-12T02:51:28;12.43;;;7.10;;
6860;SDS011;3469;47.060;15.460;2023-02-12T02:54:00;10.80;;;7.60;;
6860;SDS011;3469;47.060;15.460;2023-02-12T02:56:31;11.15;;;7.97;;
6860;SDS011;3469;47.060;15.460;2023-02-12T02:59:03;15.70;;;7.87;;
6860;SDS011;3469;47.060;15.460;2023-02-12T03:01:35;14.03;;;7.80;;
6860;SDS011;3469;47.060;15.460;2023-02-12T03:04:05;12.43;;;7.57;;
6860;SDS011;3469;47.060;15.460;2023-02-12T03:06:37;13.07;;;8.48;;
6860;SDS011;3469;47.060;15.460;2023-02-12T03:09:12;10.50;;;7.03;;
6860;SDS011;3469;47.060;15.460;2023-02-12T03:11:43;11.47;;;6.10;;
6860;SDS011;3469;47.060;15.460;2023-02-12T03:14:12;12.02;;;6.68;;
6860;SDS011;3469;47.060;15.460;2023-02-12T03:16:50;8.60;;;5.30;;
6860;SDS011;3469;47.060;15.460;2023-02-12T03:19:22;13.57;;;6.25;;
6860;SDS011;3469;47.060;15.460;2023-02-12T03:21:53;17.43;;;7.20;;
6860;SDS011;3469;47.060;15.460;2023-02-12T03:24:25;13.00;;;7.67;;
6860;SDS011;3469;47.060;15.460;2023-02-12T03:26:58;13.10;;;7.28;;
6860;SDS011;3469;47.060;15.460;2023-02-12T03:29:32;14.40;;;7.53;;
6860;SDS011;3469;47.060;15.460;2023-02-12T03:32:09;10.82;;;7.60;;
6860;SDS011;3469;47.060;15.460;2023-02-12T03:34:45;10.00;;;5.85;;
6860;SDS011;3469;47.060;15.460;2023-02-12T03:37:17;10.68;;;6.68;;
6860;SDS011;3469;47.060;15.460;2023-02-12T03:39:49;10.73;;;6.63;;
6860;SDS011;3469;47.060;15.460;2023-02-12T03:42:23;8.60;;;6.20;;
6860;SDS011;3469;47.060;15.460;2023-02-12T03:45:00;14.33;;;7.17;;
6860;SDS011;3469;47.060;15.460;2023-02-12T03:47:35;11.50;;;7.63;;
6860;SDS011;3469;47.060;15.460;2023-02-12T03:50:08;12.00;;;6.85;;
6860;SDS011;3469;47.060;15.460;2023-02-12T03:52:40;10.90;;;6.25;;
6860;SDS011;3469;47.060;15.460;2023-02-12T03:55:10;11.93;;;5.68;;
6860;SDS011;3469;47.060;15.460;2023-02-12T03:57:39;8.88;;;5.97;;
6860;SDS011;3469;47.060;15.460;2023-02-12T04:00:10;12.23;;;6.87;;
6860;SDS011;3469;47.060;15.460;2023-02-12T04:02:42;10.07;;;7.10;;
6860;SDS011;3469;47.060;15.460;2023-02-12T04:05:15;8.82;;;5.78;;
6860;SDS011;3469;47.060;15.460;2023-02-12T04:07:45;14.55;;;7.22;;
6860;SDS011;3469;47.060;15.460;2023-02-12T04:10:14;10.30;;;7.35;;
6860;SDS011;3469;47.060;15.460;2023-02-12T04:12:45;14.55;;;7.70;;
6860;SDS011;3469;47.060;15.460;2023-02-12T04:15:24;12.55;;;6.75;;
6860;SDS011;3469;47.060;15.460;2023-02-12T04:18:01;10.50;;;6.00;;
6860;SDS011;3469;47.060;15.460;2023-02-12T04:20:37;14.23;;;8.23;;
6860;SDS011;3469;47.060;15.460;2023-02-12T04:23:11;10.50;;;6.17;;
6860;SDS011;3469;47.060;15.460;2023-02-12T04:25:48;12.80;;;7.60;;
6860;SDS011;3469;47.060;15.460;2023-02-12T04:28:23;11.18;;;7.93;;
6860;SDS011;3469;47.060;15.460;2023-02-12T04:30:56;15.25;;;8.63;;
6860;SDS011;3469;47.060;15.460;2023-02-12T04:33:31;12.82;;;7.15;;
6860;SDS011;3469;47.060;15.460;2023-02-12T04:36:02;12.13;;;9.00;;
6860;SDS011;3469;47.060;15.460;2023-02-12T04:38:37;7.57;;;5.55;;
6860;SDS011;3469;47.060;15.460;2023-02-12T04:41:08;12.13;;;6.83;;
6860;SDS011;3469;47.060;15.460;2023-02-12T04:43:36;14.50;;;8.80;;
6860;SDS011;3469;47.060;15.460;2023-02-12T04:46:05;14.10;;;8.70;;
6860;SDS011;3469;47.060;15.460;2023-02-12T04:48:48;12.88;;;7.35;;
6860;SDS011;3469;47.060;15.460;2023-02-12T04:51:19;15.02;;;7.90;;
6860;SDS011;3469;47.060;15.460;2023-02-12T04:53:47;10.88;;;6.88;;
6860;SDS011;3469;47.060;15.460;2023-02-12T04:56:16;13.10;;;8.45;;
6860;SDS011;3469;47.060;15.460;2023-02-12T04:58:44;14.10;;;8.18;;
6860;SDS011;3469;47.060;15.460;2023-02-12T05:01:13;12.73;;;8.60;;
6860;SDS011;3469;47.060;15.460;2023-02-12T05:03:43;13.00;;;8.00;;
6860;SDS011;3469;47.060;15.460;2023-02-12T05:06:11;12.00;;;8.53;;
6860;SDS011;3469;47.060;15.460;2023-02-12T05:08:40;12.30;;;8.23;;
6860;SDS011;3469;47.060;15.460;2023-02-12T05:11:08;12.40;;;7.53;;
6860;SDS011;3469;47.060;15.460;2023-02-12T05:13:37;12.00;;;7.80;;
6860;SDS011;3469;47.060;15.460;2023-02-12T05:16:07;10.82;;;7.03;;
6860;SDS011;3469;47.060;15.460;2023-02-12T05:18:35;13.47;;;8.20;;
6860;SDS011;3469;47.060;15.460;2023-02-12T05:21:06;11.70;;;8.47;;
6860;SDS011;3469;47.060;15.460;2023-02-12T05:23:35;16.27;;;8.05;;
6860;SDS011;3469;47.060;15.460;2023-02-12T05:26:05;12.70;;;8.30;;
6860;SDS011;3469;47.060;15.460;2023-02-12T05:28:35;18.53;;;9.00;;
6860;SDS011;3469;47.060;15.460;2023-02-12T05:31:04;12.00;;;8.30;;
6860;SDS011;3469;47.060;15.460;2023-02-12T05:33:34;13.37;;;8.30;;
6860;SDS011;3469;47.060;15.460;2023-02-12T05:36:06;10.80;;;7.50;;
6860;SDS011;3469;47.060;15.460;2023-02-12T05:38:38;14.73;;;9.00;;
6860;SDS011;3469;47.060;15.460;2023-02-12T05:41:08;17.20;;;8.27;;
6860;SDS011;3469;47.060;15.460;2023-02-12T05:43:37;16.10;;;10.10;;
6860;SDS011;3469;47.060;15.460;2023-02-12T05:46:06;13.43;;;8.27;;
6860;SDS011;3469;47.060;15.460;2023-02-12T05:48:35;12.17;;;8.33;;
6860;SDS011;3469;47.060;15.460;2023-02-12T05:51:04;17.93;;;10.27;;
6860;SDS011;3469;47.060;15.460;2023-02-12T05:53:35;16.57;;;10.40;;
6860;SDS011;3469;47.060;15.460;2023-02-12T05:56:08;13.17;;;7.80;;
6860;SDS011;3469;47.060;15.460;2023-02-12T05:58:38;15.57;;;8.80;;
6860;SDS011;3469;47.060;15.460;2023-02-12T06:01:08;13.13;;;9.03;;
6860;SDS011;3469;47.060;15.460;2023-02-12T06:03:38;13.40;;;8.40;;
6860;SDS011;3469;47.060;15.460;2023-02-12T06:06:08;11.27;;;8.37;;
6860;SDS011;3469;47.060;15.460;2023-02-12T06:08:37;13.97;;;8.93;;
6860;SDS011;3469;47.060;15.460;2023-02-12T06:11:06;16.80;;;8.43;;
6860;SDS011;3469;47.060;15.460;2023-02-12T06:13:37;13.77;;;9.37;;
6860;SDS011;3469;47.060;15.460;2023-02-12T06:16:06;17.90;;;9.50;;
6860;SDS011;3469;47.060;15.460;2023-02-12T06:18:34;13.50;;;8.80;;
6860;SDS011;3469;47.060;15.460;2023-02-12T06:21:03;17.30;;;10.50;;
6860;SDS011;3469;47.060;15.460;2023-02-12T06:23:33;11.90;;;7.10;;
6860;SDS011;3469;47.060;15.460;2023-02-12T06:26:01;11.60;;;9.13;;
6860;SDS011;3469;47.060;15.460;2023-02-12T06:28:30;16.10;;;9.00;;
6860;SDS011;3469;47.060;15.460;2023-02-12T06:30:59;16.73;;;9.17;;
6860;SDS011;3469;47.060;15.460;2023-02-12T06:33:27;16.53;;;10.30;;
6860;SDS011;3469;47.060;15.460;2023-02-12T06:35:56;13.40;;;8.30;;
6860;SDS011;3469;47.060;15.460;2023-02-12T06:38:24;14.87;;;9.10;;
6860;SDS011;3469;47.060;15.460;2023-02-12T06:40:54;16.13;;;10.20;;
6860;SDS011;3469;47.060;15.460;2023-02-12T06:43:25;13.30;;;8.00;;
6860;SDS011;3469;47.060;15.460;2023-02-12T06:45:55;15.10;;;9.00;;
6860;SDS011;3469;47.060;15.460;2023-02-12T06:48:23;14.70;;;9.50;;
6860;SDS011;3469;47.060;15.460;2023-02-12T06:50:52;18.33;;;10.43;;
6860;SDS011;3469;47.060;15.460;2023-02-12T06:53:21;13.77;;;10.80;;
6860;SDS011;3469;47.060;15.460;2023-02-12T06:55:50;13.07;;;8.50;;
6860;SDS011;3469;47.060;15.460;2023-02-12T06:58:20;16.20;;;9.50;;
6860;SDS011;3469;47.060;15.460;2023-02-12T07:00:50;14.70;;;8.90;;
6860;SDS011;3469;47.060;15.460;2023-02-12T07:03:20;14.43;;;7.80;;
6860;SDS011;3469;47.060;15.460;2023-02-12T07:05:50;13.30;;;9.30;;
6860;SDS011;3469;47.060;15.460;2023-02-12T07:08:19;18.47;;;9.40;;
6860;SDS011;3469;47.060;15.460;2023-02-12T07:10:58;13.37;;;9.73;;
6860;SDS011;3469;47.060;15.460;2023-02-12T07:13:28;15.67;;;9.70;;
6860;SDS011;3469;47.060;15.460;2023-02-12T07:15:57;16.90;;;9.83;;
6860;SDS011;3469;47.060;15.460;2023-02-12T07:18:27;14.37;;;8.70;;
6860;SDS011;3469;47.060;15.460;2023-02-12T07:20:57;14.23;;;7.90;;
6860;SDS011;3469;47.060;15.460;2023-02-12T07:23:26;16.57;;;8.80;;
6860;SDS011;3469;47.060;15.460;2023-02-12T07:25:56;12.53;;;8.13;;
6860;SDS011;3469;47.060;15.460;2023-02-12T07:28:25;12.83;;;8.17;;
6860;SDS011;3469;47.060;15.460;2023-02-12T07:30:55;10.13;;;7.03;;
6860;SDS011;3469;47.060;15.460;2023-02-12T07:33:23;6.13;;;3.03;;
6860;SDS011;3469;47.060;15.460;2023-02-12T07:35:52;7.47;;;4.93;;
6860;SDS011;3469;47.060;15.460;2023-02-12T07:38:21;13.30;;;6.03;;
6860;SDS011;3469;47.060;15.460;2023-02-12T07:40:49;12.30;;;6.03;;
6860;SDS011;3469;47.060;15.460;2023-02-12T07:43:17;11.70;;;5.40;;
6860;SDS011;3469;47.060;15.460;2023-02-12T07:45:46;11.23;;;8.33;;
6860;SDS011;3469;47.060;15.460;2023-02-12T07:48:16;12.17;;;7.50;;
6860;SDS011;3469;47.060;15.460;2023-02-12T07:50:46;10.70;;;8.30;;
6860;SDS011;3469;47.060;15.460;2023-02-12T07:53:15;11.87;;;7.30;;
6860;SDS011;3469;47.060;15.460;2023-02-12T07:55:44;10.90;;;7.33;;
6860;SDS011;3469;47.060;15.460;2023-02-12T07:58:14;13.57;;;8.23;;
6860;SDS011;3469;47.060;15.460;2023-02-12T08:00:47;10.77;;;7.73;;
6860;SDS011;3469;47.060;15.460;2023-02-12T08:03:17;12.30;;;7.10;;
6860;SDS011;3469;47.060;15.460;2023-02-12T08:05:45;15.10;;;8.40;;
6860;SDS011;3469;47.060;15.460;2023-02-12T08:08:13;10.50;;;7.47;;
6860;SDS011;3469;47.060;15.460;2023-02-12T08:10:44;15.43;;;8.50;;
6860;SDS011;3469;47.060;15.460;2023-02-12T08:13:13;13.17;;;8.23;;
6860;SDS011;3469;47.060;15.460;2023-02-12T08:15:41;10.13;;;8.03;;
6860;SDS011;3469;47.060;15.460;2023-02-12T08:18:11;12.73;;;8.63;;
6860;SDS011;3469;47.060;15.460;2023-02-12T08:20:41;12.07;;;8.63;;
6860;SDS011;3469;47.060;15.460;2023-02-12T08:23:09;11.50;;;8.43;;
6860;SDS011;3469;47.060;15.460;2023-02-12T08:25:46;10.13;;;7.40;;
6860;SDS011;3469;47.060;15.460;2023-02-12T08:28:14;14.00;;;8.67;;
6860;SDS011;3469;47.060;15.460;2023-02-12T08:30:44;14.20;;;8.60;;
6860;SDS011;3469;47.060;15.460;2023-02-12T08:33:13;13.37;;;7.63;;
6860;SDS011;3469;47.060;15.460;2023-02-12T08:35:42;12.53;;;8.33;;
6860;SDS011;3469;47.060;15.460;2023-02-12T08:38:10;13.60;;;9.00;;
6860;SDS011;3469;47.060;15.460;2023-02-12T08:40:39;14.73;;;8.00;;
6860;SDS011;3469;47.060;15.460;2023-02-12T08:43:07;12.90;;;10.30;;
6860;SDS011;3469;47.060;15.460;2023-02-12T08:45:36;13.97;;;9.67;;
6860;SDS011;3469;47.060;15.460;2023-02-12T08:48:04;18.60;;;10.20;;
6860;SDS011;3469;47.060;15.460;2023-02-12T08:50:33;15.63;;;13.80;;
6860;SDS011;3469;47.060;15.460;2023-02-12T08:53:03;22.63;;;14.53;;
6860;SDS011;3469;47.060;15.460;2023-02-12T08:55:33;23.10;;;16.17;;
6860;SDS011;3469;47.060;15.460;2023-02-12T08:58:01;19.50;;;14.90;;
6860;SDS011;3469;47.060;15.460;2023-02-12T09:00:31;18.03;;;14.10;;
6860;SDS011;3469;47.060;15.460;2023-02-12T09:02:59;22.27;;;14.10;;
6860;SDS011;3469;47.060;15.460;2023-02-12T09:05:28;19.67;;;14.97;;
6860;SDS011;3469;47.060;15.460;2023-02-12T09:07:56;18.93;;;12.77;;
6860;SDS011;3469;47.060;15.460;2023-02-12T09:10:26;18.53;;;14.20;;
6860;SDS011;3469;47.060;15.460;2023-02-12T09:12:55;21.23;;;13.40;;
6860;SDS011;3469;47.060;15.460;2023-02-12T09:15:23;19.20;;;12.73;;
6860;SDS011;3469;47.060;15.460;2023-02-12T09:17:53;22.30;;;14.57;;
6860;SDS011;3469;47.060;15.460;2023-02-12T09:20:21;21.93;;;12.50;;
6860;SDS011;3469;47.060;15.460;2023-02-12T09:22:50;14.70;;;11.83;;
6860;SDS011;3469;47.060;15.460;2023-02-12T09:25:21;15.80;;;12.50;;
6860;SDS011;3469;47.060;15.460;2023-02-12T09:27:51;14.13;;;11.20;;
6860;SDS011;3469;47.060;15.460;2023-02-12T09:30:21;12.47;;;10.80;;
6860;SDS011;3469;47.060;15.460;2023-02-12T09:32:50;15.80;;;11.00;;
6860;SDS011;3469;47.060;15.460;2023-02-12T09:35:19;15.90;;;12.97;;
6860;SDS011;3469;47.060;15.460;2023-02-12T09:37:47;19.40;;;15.40;;
6860;SDS011;3469;47.060;15.460;2023-02-12T09:40:18;21.30;;;14.40;;
6860;SDS011;3469;47.060;15.460;2023-02-12T09:42:55;25.23;;;15.10;;
6860;SDS011;3469;47.060;15.460;2023-02-12T09:45:28;20.00;;;14.87;;
6860;SDS011;3469;47.060;15.460;2023-02-12T09:47:59;19.50;;;14.27;;
6860;SDS011;3469;47.060;15.460;2023-02-12T09:50:36;21.00;;;14.10;;
6860;SDS011;3469;47.060;15.460;2023-02-12T09:53:11;16.00;;;13.57;;
6860;SDS011;3469;47.060;15.460;2023-02-12T09:55:42;17.33;;;12.97;;
6860;SDS011;3469;47.060;15.460;2023-02-12T09:58:14;15.53;;;11.70;;
6860;SDS011;3469;47.060;15.460;2023-02-12T10:00:45;19.77;;;13.10;;
6860;SDS011;3469;47.060;15.460;2023-02-12T10:03:14;15.63;;;11.50;;
6860;SDS011;3469;47.060;15.460;2023-02-12T10:05:44;14.57;;;11.87;;
6860;SDS011;3469;47.060;15.460;2023-02-12T10:11:16;12.83;;;9.93;;
6860;SDS011;3469;47.060;15.460;2023-02-12T10:13:57;11.90;;;9.17;;
6860;SDS011;3469;47.060;15.460;2023-02-12T10:16:36;10.60;;;8.97;;
6860;SDS011;3469;47.060;15.460;2023-02-12T10:19:14;12.10;;;8.90;;
6860;SDS011;3469;47.060;15.460;2023-02-12T10:21:54;13.07;;;9.03;;
6860;SDS011;3469;47.060;15.460;2023-02-12T10:24:31;10.10;;;7.30;;
6860;SDS011;3469;47.060;15.460;2023-02-12T10:27:08;6.73;;;5.50;;
6860;SDS011;3469;47.060;15.460;2023-02-12T10:29:42;10.10;;;7.10;;
6860;SDS011;3469;47.060;15.460;2023-02-12T10:32:15;9.83;;;6.43;;
6860;SDS011;3469;47.060;15.460;2023-02-12T10:34:51;5.50;;;4.30;;
6860;SDS011;3469;47.060;15.460;2023-02-12T10:37:24;5.63;;;4.37;;
6860;SDS011;3469;47.060;15.460;2023-02-12T10:39:59;17.90;;;12.27;;
6860;SDS011;3469;47.060;15.460;2023-02-12T10:42:34;12.90;;;10.23;;
6860;SDS011;3469;47.060;15.460;2023-02-12T10:45:13;16.37;;;10.60;;
6860;SDS011;3469;47.060;15.460;2023-02-12T10:47:43;10.67;;;8.00;;
6860;SDS011;3469;47.060;15.460;2023-02-12T10:50:15;8.17;;;7.03;;
6860;SDS011;3469;47.060;15.460;2023-02-12T10:52:48;11.80;;;9.53;;
6860;SDS011;3469;47.060;15.460;2023-02-12T10:55:25;13.47;;;10.23;;
6860;SDS011;3469;47.060;15.460;2023-02-12T10:57:55;13.13;;;10.63;;
6860;SDS011;3469;47.060;15.460;2023-02-12T11:00:30;12.83;;;10.30;;
6860;SDS011;3469;47.060;15.460;2023-02-12T11:03:02;13.87;;;11.70;;
6860;SDS011;3469;47.060;15.460;2023-02-12T11:05:38;15.53;;;12.40;;
6860;SDS011;3469;47.060;15.460;2023-02-12T11:08:10;10.57;;;9.17;;
6860;SDS011;3469;47.060;15.460;2023-02-12T11:10:56;10.07;;;8.40;;
6860;SDS011;3469;47.060;15.460;2023-02-12T11:13:30;9.40;;;7.63;;
6860;SDS011;3469;47.060;15.460;2023-02-12T11:16:02;6.60;;;5.93;;
6860;SDS011;3469;47.060;15.460;2023-02-12T11:18:32;8.90;;;6.20;;
6860;SDS011;3469;47.060;15.460;2023-02-12T11:21:03;8.33;;;6.90;;
6860;SDS011;3469;47.060;15.460;2023-02-12T11:23:33;8.27;;;6.67;;
6860;SDS011;3469;47.060;15.460;2023-02-12T11:26:21;7.70;;;5.73;;
6860;SDS011;3469;47.060;15.460;2023-02-12T11:28:53;7.20;;;5.27;;
6860;SDS011;3469;47.060;15.460;2023-02-12T11:31:26;6.37;;;4.97;;
6860;SDS011;3469;47.060;15.460;2023-02-12T11:34:07;6.30;;;5.50;;
6860;SDS011;3469;47.060;15.460;2023-02-12T11:36:42;8.13;;;5.90;;
6860;SDS011;3469;47.060;15.460;2023-02-12T11:39:17;5.10;;;4.30;;
6860;SDS011;3469;47.060;15.460;2023-02-12T11:41:49;4.60;;;4.10;;
6860;SDS011;3469;47.060;15.460;2023-02-12T11:44:19;5.87;;;3.77;;
6860;SDS011;3469;47.060;15.460;2023-02-12T11:46:57;7.17;;;4.17;;
6860;SDS011;3469;47.060;15.460;2023-02-12T11:49:29;5.47;;;3.80;;
6860;SDS011;3469;47.060;15.460;2023-02-12T11:52:00;4.27;;;3.87;;
6860;SDS011;3469;47.060;15.460;2023-02-12T11:54:31;5.53;;;3.73;;
6860;SDS011;3469;47.060;15.460;2023-02-12T11:57:09;4.77;;;3.90;;
6860;SDS011;3469;47.060;15.460;2023-02-12T11:59:55;4.07;;;3.60;;
6860;SDS011;3469;47.060;15.460;2023-02-12T12:02:29;5.40;;;3.70;;
6860;SDS011;3469;47.060;15.460;2023-02-12T12:05:04;4.33;;;3.63;;
6860;SDS011;3469;47.060;15.460;2023-02-12T12:07:35;3.50;;;3.20;;
6860;SDS011;3469;47.060;15.460;2023-02-12T12:10:11;5.60;;;4.20;;
6860;SDS011;3469;47.060;15.460;2023-02-12T12:12:44;4.80;;;3.50;;
6860;SDS011;3469;47.060;15.460;2023-02-12T12:15:16;5.10;;;3.73;;
6860;SDS011;3469;47.060;15.460;2023-02-12T12:18:10;4.50;;;3.67;;
6860;SDS011;3469;47.060;15.460;2023-02-12T12:21:07;6.47;;;3.90;;
6860;SDS011;3469;47.060;15.460;2023-02-12T12:23:39;4.80;;;4.17;;
6860;SDS011;3469;47.060;15.460;2023-02-12T12:26:13;6.33;;;4.40;;
6860;SDS011;3469;47.060;15.460;2023-02-12T12:28:49;4.63;;;3.80;;
6860;SDS011;3469;47.060;15.460;2023-02-12T12:31:21;4.23;;;3.20;;
6860;SDS011;3469;47.060;15.460;2023-02-12T12:33:58;4.23;;;3.20;;
6860;SDS011;3469;47.060;15.460;2023-02-12T12:39:55;4.13;;;3.50;;
6860;SDS011;3469;47.060;15.460;2023-02-12T12:42:54;3.70;;;3.07;;
6860;SDS011;3469;47.060;15.460;2023-02-12T12:51:32;4.43;;;3.30;;
6860;SDS011;3469;47.060;15.460;2023-02-12T12:54:12;2.60;;;1.57;;
6860;SDS011;3469;47.060;15.460;2023-02-12T12:56:54;2.10;;;0.70;;
6860;SDS011;3469;47.060;15.460;2023-02-12T12:59:36;1.30;;;0.80;;
6860;SDS011;3469;47.060;15.460;2023-02-12T13:05:45;1.47;;;0.70;;
6860;SDS011;3469;47.060;15.460;2023-02-12T13:08:31;1.00;;;0.70;;
6860;SDS011;3469;47.060;15.460;2023-02-12T13:11:11;1.93;;;0.67;;
6860;SDS011;3469;47.060;15.460;2023-02-12T13:13:45;1.33;;;0.53;;
6860;SDS011;3469;47.060;15.460;2023-02-12T13:16:17;1.00;;;0.50;;
6860;SDS011;3469;47.060;15.460;2023-02-12T13:18:53;1.13;;;0.80;;
6860;SDS011;3469;47.060;15.460;2023-02-12T13:21:31;0.87;;;0.63;;
6860;SDS011;3469;47.060;15.460;2023-02-12T13:24:06;1.83;;;1.23;;
6860;SDS011;3469;47.060;15.460;2023-02-12T13:26:44;1.13;;;0.50;;
6860;SDS011;3469;47.060;15.460;2023-02-12T13:29:17;0.80;;;0.60;;
6860;SDS011;3469;47.060;15.460;2023-02-12T13:31:50;1.30;;;0.60;;
6860;SDS011;3469;47.060;15.460;2023-02-12T13:34:25;1.03;;;0.60;;
6860;SDS011;3469;47.060;15.460;2023-02-12T13:36:59;1.00;;;0.50;;
6860;SDS011;3469;47.060;15.460;2023-02-12T13:39:29;1.00;;;0.60;;
6860;SDS011;3469;47.060;15.460;2023-02-12T13:42:07;0.80;;;0.50;;
6860;SDS011;3469;47.060;15.460;2023-02-12T13:44:43;0.90;;;0.50;;
6860;SDS011;3469;47.060;15.460;2023-02-12T13:47:16;2.13;;;0.70;;
6860;SDS011;3469;47.060;15.460;2023-02-12T13:49:53;1.07;;;0.70;;
6860;SDS011;3469;47.060;15.460;2023-02-12T13:52:29;0.70;;;0.47;;
6860;SDS011;3469;47.060;15.460;2023-02-12T13:55:09;1.23;;;0.60;;
6860;SDS011;3469;47.060;15.460;2023-02-12T13:57:52;1.17;;;0.83;;
6860;SDS011;3469;47.060;15.460;2023-02-12T14:04:25;0.80;;;0.60;;
6860;SDS011;3469;47.060;15.460;2023-02-12T14:06:56;0.70;;;0.50;;
6860;SDS011;3469;47.060;15.460;2023-02-12T14:09:31;1.30;;;0.70;;
6860;SDS011;3469;47.060;15.460;2023-02-12T14:12:03;0.80;;;0.70;;
6860;SDS011;3469;47.060;15.460;2023-02-12T14:14:36;0.83;;;0.50;;
6860;SDS011;3469;47.060;15.460;2023-02-12T14:20:23;1.67;;;0.70;;
6860;SDS011;3469;47.060;15.460;2023-02-12T14:26:00;2.00;;;0.50;;
6860;SDS011;3469;47.060;15.460;2023-02-12T14:28:38;1.23;;;0.80;;
6860;SDS011;3469;47.060;15.460;2023-02-12T14:37:11;1.07;;;0.77;;
6860;SDS011;3469;47.060;15.460;2023-02-12T14:39:46;1.23;;;0.90;;
6860;SDS011;3469;47.060;15.460;2023-02-12T14:45:32;0.83;;;0.60;;
6860;SDS011;3469;47.060;15.460;2023-02-12T14:48:02;1.73;;;0.80;;
6860;SDS011;3469;47.060;15.460;2023-02-12T14:50:38;1.00;;;0.60;;
6860;SDS011;3469;47.060;15.460;2023-02-12T14:53:25;1.93;;;0.50;;
6860;SDS011;3469;47.060;15.460;2023-02-12T14:55:58;1.20;;;0.70;;
6860;SDS011;3469;47.060;15.460;2023-02-12T14:58:29;1.10;;;0.70;;
6860;SDS011;3469;47.060;15.460;2023-02-12T15:01:03;2.53;;;2.33;;
6860;SDS011;3469;47.060;15.460;2023-02-12T15:03:37;0.80;;;0.50;;
6860;SDS011;3469;47.060;15.460;2023-02-12T15:06:14;1.27;;;0.67;;
6860;SDS011;3469;47.060;15.460;2023-02-12T15:08:50;1.17;;;0.70;;
6860;SDS011;3469;47.060;15.460;2023-02-12T15:11:29;1.93;;;0.83;;
6860;SDS011;3469;47.060;15.460;2023-02-12T15:14:06;1.73;;;0.60;;
6860;SDS011;3469;47.060;15.460;2023-02-12T15:16:48;1.47;;;0.97;;
6860;SDS011;3469;47.060;15.460;2023-02-12T15:19:30;0.93;;;0.80;;
6860;SDS011;3469;47.060;15.460;2023-02-12T15:22:20;1.17;;;0.90;;
6860;SDS011;3469;47.060;15.460;2023-02-12T15:24:52;1.20;;;0.80;;
6860;SDS011;3469;47.060;15.460;2023-02-12T15:27:22;1.10;;;0.70;;
6860;SDS011;3469;47.060;15.460;2023-02-12T15:29:53;3.93;;;1.00;;
6860;SDS011;3469;47.060;15.460;2023-02-12T15:32:27;1.10;;;0.70;;
6860;SDS011;3469;47.060;15.460;2023-02-12T15:34:59;1.40;;;0.70;;
6860;SDS011;3469;47.060;15.460;2023-02-12T15:37:33;1.03;;;0.67;;
6860;SDS011;3469;47.060;15.460;2023-02-12T15:40:03;2.20;;;0.83;;
6860;SDS011;3469;47.060;15.460;2023-02-12T15:42:36;0.90;;;0.60;;
6860;SDS011;3469;47.060;15.460;2023-02-12T15:45:30;0.90;;;0.67;;
6860;SDS011;3469;47.060;15.460;2023-02-12T15:50:49;1.47;;;0.80;;
6860;SDS011;3469;47.060;15.460;2023-02-12T15:53:22;1.03;;;0.70;;
6860;SDS011;3469;47.060;15.460;2023-02-12T15:55:56;1.23;;;0.80;;
6860;SDS011;3469;47.060;15.460;2023-02-12T15:58:31;0.90;;;0.70;;